createdAt,value
2024-03-14T00:08:54.553Z,1014.9899669661266
2024-03-14T00:12:19.903Z,1014.9911577701475
2024-03-14T00:15:46.361Z,1014.9938111642482
2024-03-14T00:20:36.287Z,1014.992428600075
2024-03-14T00:24:00.958Z,1015.024534933562
2024-03-14T00:27:41.105Z,1015.0251545067583
2024-03-14T00:31:18.358Z,1015.0437029599643
2024-03-14T00:35:02.391Z,1015.0629745844811
2024-03-14T00:38:55.735Z,1015.0653293432
2024-03-14T00:43:15.400Z,1015.0464228804644
2024-03-14T00:46:46.488Z,1015.0147958416843
2024-03-14T00:50:16.300Z,1015.0118071845483
2024-03-14T00:53:52.932Z,1015.0021153116219
2024-03-14T00:58:40.305Z,1014.9753801315994
2024-03-14T01:02:15.069Z,1014.9342141925846
2024-03-14T01:05:54.853Z,1014.899074691002
2024-03-14T01:18:36.315Z,1014.8088234092759
2024-03-14T01:22:24.476Z,1014.7914073103886
2024-03-14T01:35:11.929Z,1014.7370418624275
2024-03-14T01:40:08.804Z,1014.6959862745142
2024-03-14T01:43:52.520Z,1014.6817093419463
2024-03-14T01:47:41.593Z,1014.6347608553502
2024-03-14T01:51:13.253Z,1014.6046865036191
2024-03-14T01:56:56.145Z,1014.537280938481
2024-03-14T02:00:35.814Z,1014.4691318155498
2024-03-14T02:06:32.376Z,1014.4151827207213
2024-03-14T02:10:31.748Z,1014.3768259968291
2024-03-14T02:16:24.549Z,1014.3350683700301
2024-03-14T02:19:57.013Z,1014.3245723240402
2024-03-14T02:23:25.935Z,1014.2849031170516
2024-03-14T02:26:55.948Z,1014.2572495409088
2024-03-14T02:31:49.370Z,1014.249528909247
2024-03-14T02:38:19.561Z,1014.2219876954223
2024-03-14T02:44:46.147Z,1014.1732720096733
2024-03-14T02:49:50.159Z,1014.13512659825
2024-03-14T02:58:09.258Z,1014.149107416202
2024-03-14T03:01:59.652Z,1014.1938891196917
2024-03-14T03:05:27.584Z,1014.1821649288544
2024-03-14T03:18:58.147Z,1014.0375637189923
2024-03-14T03:22:31.852Z,1014.0286976901237
2024-03-14T03:28:06.150Z,1013.9889742724112
2024-03-14T03:31:32.435Z,1013.9782324073269
2024-03-14T03:34:59.134Z,1013.9845301044281
2024-03-14T03:38:26.874Z,1013.9994109647711
2024-03-14T03:45:56.452Z,1013.9441640920286
2024-03-14T03:53:03.570Z,1013.8827102292755
2024-03-14T03:56:34.252Z,1013.8548482208296
2024-03-14T04:09:44.083Z,1013.7850919021196
2024-03-14T04:13:17.761Z,1013.7664764695681
2024-03-14T04:17:09.009Z,1013.7340533160526
2024-03-14T04:20:58.297Z,1013.692538446997
2024-03-14T04:24:40.947Z,1013.674552211201
2024-03-14T04:28:22.706Z,1013.6573755139117
2024-03-14T04:32:04.610Z,1013.654578811998
2024-03-14T04:36:28.319Z,1013.6348679085104
2024-03-14T04:41:48.628Z,1013.6242478640851
2024-03-14T04:45:24.126Z,1013.6260848351084
2024-03-14T04:48:59.853Z,1013.6092482640073
2024-03-14T04:52:33.821Z,1013.6178205800061
2024-03-14T04:56:03.571Z,1013.6116373565387
2024-03-14T04:59:42.004Z,1013.6129765015772
2024-03-14T05:03:12.717Z,1013.5963040829987
2024-03-14T05:06:40.353Z,1013.5791636545586
2024-03-14T05:10:15.023Z,1013.5811857712657
2024-03-14T05:13:46.238Z,1013.5752467022195
2024-03-14T05:17:14.082Z,1013.5988738706216
2024-03-14T05:22:26.311Z,1013.6472154473483
2024-03-14T05:26:41.039Z,1013.6792918344215
2024-03-14T05:30:32.742Z,1013.6840025756903
2024-03-14T05:34:16.101Z,1013.6631673035357
2024-03-14T05:38:00.236Z,1013.6602669682134
2024-03-14T05:41:41.747Z,1013.6665379375692
2024-03-14T05:45:25.279Z,1013.6503465680221
2024-03-14T05:50:55.951Z,1013.6422145569704
2024-03-14T05:54:22.096Z,1013.630955225725
2024-03-14T05:58:00.830Z,1013.6506299074958
2024-03-14T06:04:47.785Z,1013.6615516867096
2024-03-14T06:08:12.049Z,1013.6874780417281
2024-03-14T06:15:02.023Z,1013.6852886393715
2024-03-14T06:18:31.834Z,1013.696536966101
2024-03-14T06:21:53.054Z,1013.6999178182135
2024-03-14T06:25:48.521Z,1013.7416538608608
2024-03-14T06:32:09.248Z,1013.7584336602062
2024-03-14T06:35:30.911Z,1013.7587324229719
2024-03-14T06:39:53.430Z,1013.7607547015757
2024-03-14T06:43:20.113Z,1013.7939035914953
2024-03-14T06:46:54.379Z,1013.7989280350598
2024-03-14T06:50:24.035Z,1013.7742513358019
2024-03-14T06:56:22.618Z,1013.7705520763013
2024-03-14T06:59:48.464Z,1013.784884135926
2024-03-14T07:04:02.362Z,1013.827152418255
2024-03-14T07:10:31.073Z,1013.8619771204121
2024-03-14T07:14:20.941Z,1013.850361150502
2024-03-14T07:18:19.280Z,1013.8370925811736
2024-03-14T07:21:56.307Z,1013.8684962395295
2024-03-14T07:25:25.101Z,1013.8922147101962
2024-03-14T07:38:12.090Z,1013.9414201241642
2024-03-14T07:53:38.649Z,1014.0870326116034
2024-03-14T07:58:22.330Z,1014.0298061663085
2024-03-14T08:01:47.280Z,1014.014101808026
2024-03-14T08:05:12.488Z,1014.010479823631
2024-03-14T08:08:38.710Z,1013.9934939716866
2024-03-14T08:12:04.976Z,1013.9829051202931
2024-03-14T08:15:32.523Z,1013.9970830018765
2024-03-14T08:19:05.178Z,1013.9779578429795
2024-03-14T08:22:49.194Z,1014.0131701129545
2024-03-14T08:26:15.934Z,1014.0331972191337
2024-03-14T08:32:46.218Z,1014.0363922652799
2024-03-14T08:36:22.246Z,1014.0515196445215
2024-03-14T08:40:01.738Z,1014.0463011691771
2024-03-14T08:45:34.578Z,1013.9603340761735
2024-03-14T08:49:02.498Z,1013.9379872348272
2024-03-14T08:52:50.452Z,1013.9490691052595
2024-03-14T09:03:10.432Z,1013.8684813024284
2024-03-14T09:06:44.468Z,1013.8575827350811
2024-03-14T09:10:51.083Z,1013.8408759157072
2024-03-14T09:15:56.174Z,1013.8755470160655
2024-03-14T09:19:50.927Z,1013.9044978530892
2024-03-14T09:28:31.382Z,1013.9054793149165
2024-03-14T09:32:49.261Z,1013.9002925916218
2024-03-14T09:36:26.396Z,1013.8832012163875
2024-03-14T09:40:06.573Z,1013.8369771379053
2024-03-14T09:43:32.972Z,1013.8490971590429
2024-03-14T09:47:03.144Z,1013.9045011148892
2024-03-14T09:59:24.183Z,1013.8673485509315
2024-03-14T10:07:22.035Z,1013.8575267538773
2024-03-14T10:11:00.788Z,1013.8387483306249
2024-03-14T10:14:29.814Z,1013.8077628537006
2024-03-14T10:18:01.043Z,1013.8121710712262
2024-03-14T10:21:25.633Z,1013.8227042741181
2024-03-14T10:24:51.195Z,1013.7850667717834
2024-03-14T10:28:19.254Z,1013.7420772942492
2024-03-14T10:31:47.591Z,1013.7298799908797
2024-03-14T10:35:16.075Z,1013.7023455553816
2024-03-14T10:41:06.502Z,1013.7035161755622
2024-03-14T10:44:38.033Z,1013.6506883556151
2024-03-14T10:48:06.345Z,1013.6117331738933
2024-03-14T10:52:31.791Z,1013.5561783134284
2024-03-14T11:00:47.382Z,1013.4595370765293
2024-03-14T11:04:17.254Z,1013.4086604442439
2024-03-14T11:07:45.093Z,1013.4027323880808
2024-03-14T11:11:23.239Z,1013.3850169226253
2024-03-14T11:16:10.439Z,1013.3308247200675
2024-03-14T11:19:51.165Z,1013.2969668259361
2024-03-14T11:23:24.476Z,1013.2471460650439
2024-03-14T11:26:51.426Z,1013.2239987918692
2024-03-14T11:30:16.561Z,1013.1614656916618
2024-03-14T11:33:44.119Z,1013.1715681702524
2024-03-14T11:37:13.951Z,1013.1661784203511
2024-03-14T11:40:41.347Z,1013.1584048297639
2024-03-14T11:44:07.280Z,1013.1514309486994
2024-03-14T11:47:36.275Z,1013.1513893521184
2024-03-14T11:51:01.561Z,1013.1103783717333
2024-03-14T11:54:29.183Z,1013.1445538977019
2024-03-14T11:57:57.127Z,1013.0941102869358
2024-03-14T12:01:32.358Z,1013.0420556287285
2024-03-14T12:05:12.220Z,1012.983784600724
2024-03-14T12:08:38.752Z,1012.9231716246587
2024-03-14T12:12:04.711Z,1012.8963488351976
2024-03-14T12:15:30.545Z,1012.8655474491397
2024-03-14T12:18:57.741Z,1012.8181656414913
2024-03-14T12:22:25.388Z,1012.772318601224
2024-03-14T12:25:49.569Z,1012.7369099022436
2024-03-14T12:34:25.513Z,1012.6692794036773
2024-03-14T12:37:52.401Z,1012.6487566953814
2024-03-14T12:47:16.929Z,1012.5856629661608
2024-03-14T12:51:02.925Z,1012.5313041964018
2024-03-14T12:54:37.577Z,1012.5120596301825
2024-03-14T12:58:08.401Z,1012.4629362801271
2024-03-14T13:01:47.899Z,1012.3977996215874
2024-03-14T13:05:16.297Z,1012.3234434395266
2024-03-14T13:12:31.270Z,1012.2404245584801
2024-03-14T13:17:55.046Z,1012.179741815777
2024-03-14T13:29:12.185Z,1012.0984004763498
2024-03-14T13:32:39.245Z,1012.131416394174
2024-03-14T13:36:19.853Z,1012.1251336040992
2024-03-14T13:39:51.046Z,1012.1099319372634
2024-03-14T13:43:24.829Z,1012.0878744912483
2024-03-14T13:46:50.308Z,1012.0453799686127
2024-03-14T13:50:21.711Z,1012.0660596442145
2024-03-14T13:54:05.895Z,1012.0874734273024
2024-03-14T14:07:25.290Z,1012.0008865911728
2024-03-14T14:13:38.109Z,1011.9532548207516
2024-03-14T14:17:03.275Z,1011.9508096458234
2024-03-14T14:20:24.202Z,1011.8943195136843
2024-03-14T14:23:45.142Z,1011.8890644263762
2024-03-14T14:27:07.307Z,1011.8679372612183
2024-03-14T14:30:30.925Z,1011.8174273370702
2024-03-14T14:33:53.419Z,1011.7626815578803
2024-03-14T14:37:16.438Z,1011.7144461357824
2024-03-14T14:42:44.955Z,1011.697675835169
2024-03-14T14:46:09.081Z,1011.645101362334
2024-03-14T14:49:30.860Z,1011.5883772114257
2024-03-14T14:52:53.414Z,1011.540887062198
2024-03-14T15:00:17.910Z,1011.4403093366105
2024-03-14T15:03:40.147Z,1011.4105783848613
2024-03-14T15:07:02.961Z,1011.3794085031609
2024-03-14T15:10:26.947Z,1011.3971365746407
2024-03-14T15:13:49.453Z,1011.3768198122143
2024-03-14T15:17:13.104Z,1011.3868052665376
2024-03-14T15:20:39.189Z,1011.3722591031072
2024-03-14T15:24:05.136Z,1011.3519483351445
2024-03-14T15:27:31.267Z,1011.3157647415914
2024-03-14T15:30:56.940Z,1011.2783969558727
2024-03-14T15:35:50.787Z,1011.1653871844582
2024-03-14T15:39:22.604Z,1011.1321697746911
2024-03-14T15:42:49.775Z,1011.1340534781317
2024-03-14T15:46:22.057Z,1011.0886524556197
2024-03-14T15:49:49.624Z,1011.0654523580656
2024-03-14T15:53:14.200Z,1011.0868750621911
2024-03-14T15:56:40.917Z,1011.10944491668
2024-03-14T16:00:04.378Z,1011.1238514448154
2024-03-14T16:03:29.365Z,1011.1522343677159
2024-03-14T16:06:54.472Z,1011.0894332409597
2024-03-14T16:10:17.673Z,1011.0389454695701
2024-03-14T16:13:42.321Z,1011.0517311607475
2024-03-14T16:17:05.966Z,1011.0456802777635
2024-03-14T16:22:44.916Z,1010.9885006137923
2024-03-14T16:26:23.630Z,1010.9629908918607
2024-03-14T16:38:24.144Z,1011.0239864770505
2024-03-14T16:50:21.317Z,1011.0305956882593
2024-03-14T16:53:44.201Z,1010.9989663459145
2024-03-14T16:57:07.447Z,1010.9830724376255
2024-03-14T17:00:31.589Z,1010.9776696623439
2024-03-14T17:03:53.787Z,1010.9498816083393
2024-03-14T17:07:19.274Z,1010.9140665126055
2024-03-14T17:10:40.558Z,1010.8720989693323
2024-03-14T17:15:57.060Z,1010.8352361559372
2024-03-14T17:19:41.396Z,1010.823979127524
2024-03-14T17:23:09.740Z,1010.801512791291
2024-03-14T17:26:33.372Z,1010.7612039001261
2024-03-14T17:29:56.516Z,1010.714592004049
2024-03-14T17:34:02.470Z,1010.6804900260089
2024-03-14T17:37:40.289Z,1010.6509219966312
2024-03-14T17:41:01.716Z,1010.640894061611
2024-03-14T17:47:02.317Z,1010.61293572568
2024-03-14T17:50:23.537Z,1010.5966901792385
2024-03-14T17:53:45.834Z,1010.5822279397279
2024-03-14T18:00:25.134Z,1010.5450154947023
2024-03-14T18:06:06.984Z,1010.4674490664335
2024-03-14T18:11:03.307Z,1010.4516647380162
2024-03-14T18:14:26.035Z,1010.478997944388
2024-03-14T18:17:46.357Z,1010.5187615269274
2024-03-14T18:21:07.759Z,1010.5638941423911
2024-03-14T18:24:31.278Z,1010.5700447251645
2024-03-14T18:27:53.292Z,1010.5803722487643
2024-03-14T18:34:33.315Z,1010.5360852641124
2024-03-14T18:37:55.781Z,1010.5254654795289
2024-03-14T18:41:17.348Z,1010.5260850066916
2024-03-14T18:44:38.036Z,1010.525658839587
2024-03-14T18:48:01.656Z,1010.4950005360799
2024-03-14T18:51:24.080Z,1010.4896440571264
2024-03-14T18:54:49.491Z,1010.4935845107522
2024-03-14T18:58:10.781Z,1010.4874462903977
2024-03-14T19:04:32.191Z,1010.4429660007207
2024-03-14T19:07:53.546Z,1010.4125770937711
2024-03-14T19:11:14.618Z,1010.3857675651217
2024-03-14T19:14:36.349Z,1010.3270211669401
2024-03-14T19:17:58.717Z,1010.2818524865679
2024-03-14T19:21:19.644Z,1010.280103709319
2024-03-14T19:24:43.548Z,1010.2917616775501
2024-03-14T19:28:06.021Z,1010.2677652403007
2024-03-14T19:31:28.238Z,1010.2170340575256
2024-03-14T19:34:51.385Z,1010.2122342103698
2024-03-14T19:38:13.460Z,1010.2064889313373
2024-03-14T19:46:06.441Z,1010.1054070078752
2024-03-14T19:58:07.905Z,1010.0141261734735
2024-03-14T20:10:02.155Z,1009.8946739997335
2024-03-14T20:13:23.825Z,1009.86371717535
2024-03-14T20:16:44.365Z,1009.8398687765981
2024-03-14T20:20:05.457Z,1009.8030854198355
2024-03-14T20:23:27.250Z,1009.7779409196334
2024-03-14T20:26:48.530Z,1009.7399864446154
2024-03-14T20:30:10.072Z,1009.7163020579517
2024-03-14T20:33:31.007Z,1009.6608510456142
2024-03-14T20:36:51.757Z,1009.6167224348744
2024-03-14T20:45:05.934Z,1009.6237868209752
2024-03-14T20:48:28.755Z,1009.6533527800941
2024-03-14T20:55:03.725Z,1009.6061845763275
2024-03-14T20:59:23.035Z,1009.5857459547623
2024-03-14T21:04:50.749Z,1009.5313817704046
2024-03-14T21:08:11.804Z,1009.5516190822084
2024-03-14T21:11:32.976Z,1009.5593690775067
2024-03-14T21:14:54.356Z,1009.5541850229496
2024-03-14T21:18:14.421Z,1009.5538672845709
2024-03-14T21:26:09.951Z,1009.4979197440841
2024-03-14T21:29:30.960Z,1009.4938159172318
2024-03-14T21:32:52.273Z,1009.5330576601489
2024-03-14T21:36:12.391Z,1009.5247786104082
2024-03-14T21:39:53.967Z,1009.5158743769138
2024-03-14T21:43:15.141Z,1009.4989211933317
2024-03-14T21:46:38.194Z,1009.4693781812958
2024-03-14T21:49:59.657Z,1009.4438410508262
2024-03-14T21:53:24.842Z,1009.4406235587851
2024-03-14T22:07:06.920Z,1009.3309034393351
2024-03-14T22:10:29.188Z,1009.3136927749432
2024-03-14T22:13:52.382Z,1009.3092142831313
2024-03-14T22:17:14.056Z,1009.2688338918243
2024-03-14T22:20:35.875Z,1009.233858450769
2024-03-14T22:23:57.999Z,1009.2137916144367
2024-03-14T22:27:21.223Z,1009.1645911002369
2024-03-14T22:30:50.342Z,1009.113777370543
2024-03-14T22:34:19.475Z,1009.0947103689773
2024-03-14T22:37:45.946Z,1009.0443958366726
2024-03-14T22:41:10.385Z,1008.9934892048391
2024-03-14T22:44:34.099Z,1008.9550042196955
2024-03-14T22:48:17.030Z,1008.9247490946294
2024-03-14T22:55:58.814Z,1008.8861891226335
2024-03-14T22:59:20.910Z,1008.8592282075837
2024-03-14T23:02:43.449Z,1008.8567147626014
2024-03-14T23:06:04.820Z,1008.8739616926933
2024-03-14T23:09:27.801Z,1008.8942779838518
2024-03-14T23:12:49.300Z,1008.898188094689
2024-03-14T23:16:16.963Z,1008.8399918140728
2024-03-14T23:19:41.451Z,1008.8288098053077
2024-03-14T23:23:04.588Z,1008.8323242687857
2024-03-14T23:26:33.573Z,1008.8239374876873
2024-03-14T23:31:42.169Z,1008.7801443887361
2024-03-14T23:35:03.669Z,1008.7441801533607
2024-03-14T23:40:57.545Z,1008.6938306558189
2024-03-14T23:44:19.039Z,1008.6604774038756
2024-03-14T23:47:40.791Z,1008.6097076511925
2024-03-14T23:52:16.718Z,1008.5284651037014
2024-03-14T23:55:38.419Z,1008.4873082570551
2024-03-14T23:58:58.293Z,1008.4867642115084
